createdAt,value
2018-12-31T00:00:08.716Z,100512.09
2018-12-31T00:02:37.703Z,100507.23
2018-12-31T00:05:07.190Z,100517.38
2018-12-31T00:07:35.646Z,100510.78
2018-12-31T00:10:04.326Z,100515.67
2018-12-31T00:12:32.702Z,100519.17
2018-12-31T00:15:01.075Z,100514.34
2018-12-31T00:17:29.456Z,100520.95
2018-12-31T00:19:57.828Z,100521.81
2018-12-31T00:22:26.199Z,100523.59
2018-12-31T00:24:54.609Z,100528.86
2018-12-31T00:27:22.980Z,100528.48
2018-12-31T00:29:51.360Z,100527.99
2018-12-31T00:32:19.731Z,100531.50
2018-12-31T00:34:48.103Z,100537.71
2018-12-31T00:37:16.475Z,100535.07
2018-12-31T00:39:44.857Z,100533.33
2018-12-31T00:42:13.231Z,100536.84
2018-12-31T00:44:41.611Z,100537.30
2018-12-31T00:47:09.988Z,100535.52
2018-12-31T00:49:38.364Z,100542.12
2018-12-31T00:52:07.440Z,100543.89
2018-12-31T00:54:35.815Z,100539.48
2018-12-31T00:57:04.185Z,100542.19
2018-12-31T00:59:32.569Z,100540.86
2018-12-31T01:02:00.947Z,100541.25
2018-12-31T01:04:29.320Z,100543.89
2018-12-31T01:06:57.690Z,100544.34
2018-12-31T01:09:26.067Z,100541.70
2018-12-31T01:11:54.433Z,100544.82
2018-12-31T01:14:22.810Z,100539.06
2018-12-31T01:16:51.179Z,100542.19
2018-12-31T01:19:19.553Z,100543.50
2018-12-31T01:21:47.923Z,100542.19
2018-12-31T01:24:16.303Z,100541.31
2018-12-31T01:26:44.669Z,100538.22
2018-12-31T01:29:13.051Z,100535.59
2018-12-31T01:31:41.422Z,100543.08
2018-12-31T01:34:09.799Z,100542.19
2018-12-31T01:36:38.166Z,100537.36
2018-12-31T01:39:07.018Z,100543.95
2018-12-31T01:41:35.394Z,100544.40
2018-12-31T01:44:03.776Z,100547.91
2018-12-31T01:46:32.144Z,100551.41
2018-12-31T01:49:00.511Z,100554.50
2018-12-31T01:51:28.886Z,100558.46
2018-12-31T01:53:57.337Z,100556.20
2018-12-31T01:56:25.716Z,100558.01
2018-12-31T01:58:54.100Z,100558.84
2018-12-31T02:01:22.493Z,100552.51
2018-12-31T02:03:50.861Z,100552.51
2018-12-31T02:06:19.280Z,100552.31
2018-12-31T02:08:47.618Z,100551.00
2018-12-31T02:11:15.999Z,100549.67
2018-12-31T02:13:44.369Z,100547.04
2018-12-31T02:16:12.747Z,100546.20
2018-12-31T02:18:41.117Z,100543.62
2018-12-31T02:21:09.546Z,100547.52
2018-12-31T02:23:38.127Z,100553.25
2018-12-31T02:26:06.518Z,100550.16
2018-12-31T02:28:34.902Z,100558.08
2018-12-31T02:31:03.360Z,100560.72
2018-12-31T02:33:31.741Z,100551.87
2018-12-31T02:36:00.136Z,100564.67
2018-12-31T02:38:28.522Z,100560.72
2018-12-31T02:40:56.923Z,100572.17
2018-12-31T02:43:25.332Z,100559.84
2018-12-31T02:45:53.704Z,100571.72
2018-12-31T02:48:22.101Z,100575.22
2018-12-31T02:50:50.501Z,100566.89
2018-12-31T02:53:18.887Z,100571.72
2018-12-31T02:55:47.272Z,100570.40
2018-12-31T02:58:15.660Z,100567.76
2018-12-31T03:00:44.224Z,100570.84
2018-12-31T03:03:12.613Z,100559.84
2018-12-31T03:05:40.996Z,100558.14
2018-12-31T03:08:09.390Z,100556.82
2018-12-31T03:10:38.489Z,100552.00
2018-12-31T03:13:06.873Z,100553.31
2018-12-31T03:15:35.304Z,100551.55
2018-12-31T03:18:03.684Z,100547.11
2018-12-31T03:20:32.061Z,100544.08
2018-12-31T03:23:00.535Z,100540.12
2018-12-31T03:25:28.908Z,100535.23
2018-12-31T03:27:57.302Z,100541.44
2018-12-31T03:30:25.681Z,100538.35
2018-12-31T03:32:54.082Z,100527.80
2018-12-31T03:35:22.467Z,100519.47
2018-12-31T03:37:50.873Z,100516.38
2018-12-31T03:40:19.259Z,100505.83
2018-12-31T03:42:47.664Z,100510.23
2018-12-31T03:45:16.052Z,100513.73
2018-12-31T03:47:44.445Z,100517.28
2018-12-31T03:50:12.834Z,100519.47
2018-12-31T03:52:41.225Z,100515.52
2018-12-31T03:55:09.618Z,100516.38
2018-12-31T03:57:38.890Z,100520.79
2018-12-31T04:00:07.410Z,100524.30
2018-12-31T04:02:35.833Z,100526.93
2018-12-31T04:05:04.962Z,100533.53
2018-12-31T04:07:33.352Z,100534.84
2018-12-31T04:10:01.747Z,100530.02
2018-12-31T04:12:30.134Z,100530.89
2018-12-31T04:14:58.515Z,100532.66
2018-12-31T04:17:26.916Z,100532.66
2018-12-31T04:19:55.297Z,100536.16
2018-12-31T04:22:23.684Z,100533.98
2018-12-31T04:24:52.145Z,100536.23
2018-12-31T04:27:20.540Z,100537.06
2018-12-31T04:29:48.941Z,100540.64
2018-12-31T04:32:17.328Z,100541.89
2018-12-31T04:34:45.714Z,100527.83
2018-12-31T04:37:14.223Z,100527.45
2018-12-31T04:39:42.579Z,100525.67
2018-12-31T04:42:10.988Z,100523.48
2018-12-31T04:44:39.375Z,100527.45
2018-12-31T04:47:07.774Z,100536.61
2018-12-31T04:49:36.177Z,100540.19
2018-12-31T04:52:04.555Z,100541.02
2018-12-31T04:54:32.952Z,100538.45
2018-12-31T04:57:01.334Z,100535.36
2018-12-31T04:59:29.728Z,100530.53
2018-12-31T05:01:58.119Z,100534.05
2018-12-31T05:04:26.505Z,100525.26
2018-12-31T05:06:54.887Z,100530.95
2018-12-31T05:09:23.272Z,100523.48
2018-12-31T05:11:51.661Z,100530.53
2018-12-31T05:14:20.059Z,100531.85
2018-12-31T05:16:48.506Z,100529.22
2018-12-31T05:19:16.902Z,100527.52
2018-12-31T05:21:45.290Z,100534.97
2018-12-31T05:24:13.690Z,100534.97
2018-12-31T05:26:42.080Z,100528.77
2018-12-31T05:29:10.474Z,100529.70
2018-12-31T05:31:39.817Z,100523.55
2018-12-31T05:34:08.188Z,100523.55
2018-12-31T05:36:36.568Z,100528.37
2018-12-31T05:39:06.504Z,100529.70
2018-12-31T05:41:34.894Z,100526.58
2018-12-31T05:44:03.289Z,100530.53
2018-12-31T05:46:31.670Z,100526.19
2018-12-31T05:49:00.066Z,100527.06
2018-12-31T05:51:28.454Z,100534.55
2018-12-31T05:53:56.858Z,100532.78
2018-12-31T05:56:25.225Z,100534.55
2018-12-31T05:58:53.614Z,100534.17
2018-12-31T06:01:22.002Z,100538.52
2018-12-31T06:03:50.393Z,100532.41
2018-12-31T06:06:18.774Z,100535.04
2018-12-31T06:08:47.165Z,100537.68
2018-12-31T06:11:15.557Z,100543.85
2018-12-31T06:13:43.963Z,100545.59
2018-12-31T06:16:12.338Z,100549.13
2018-12-31T06:18:40.718Z,100547.36
2018-12-31T06:21:10.151Z,100547.81
2018-12-31T06:23:38.536Z,100547.81
2018-12-31T06:26:06.933Z,100548.74
2018-12-31T06:28:35.323Z,100553.95
2018-12-31T06:31:03.721Z,100554.41
2018-12-31T06:33:32.139Z,100554.41
2018-12-31T06:36:00.546Z,100555.27
2018-12-31T06:38:28.938Z,100554.83
2018-12-31T06:40:57.339Z,100555.34
2018-12-31T06:43:25.714Z,100554.02
2018-12-31T06:45:54.115Z,100564.09
2018-12-31T06:48:22.503Z,100565.89
2018-12-31T06:50:50.889Z,100572.00
2018-12-31T06:53:19.277Z,100574.64
2018-12-31T06:55:47.673Z,100577.28
2018-12-31T06:58:16.055Z,100583.88
2018-12-31T07:00:44.452Z,100585.67
2018-12-31T07:03:12.841Z,100595.73
2018-12-31T07:05:41.233Z,100594.91
2018-12-31T07:08:10.234Z,100591.40
2018-12-31T07:10:38.620Z,100597.99
2018-12-31T07:13:07.017Z,100593.59
2018-12-31T07:15:35.414Z,100595.35
2018-12-31T07:18:03.807Z,100603.27
2018-12-31T07:20:32.201Z,100607.67
2018-12-31T07:23:00.576Z,100610.31
2018-12-31T07:25:28.974Z,100616.45
2018-12-31T07:27:57.361Z,100618.64
2018-12-31T07:30:25.759Z,100622.19
2018-12-31T07:32:54.145Z,100622.66
2018-12-31T07:35:22.554Z,100623.50
2018-12-31T07:37:50.918Z,100612.95
2018-12-31T07:40:19.305Z,100609.92
2018-12-31T07:42:47.692Z,100620.02
2018-12-31T07:45:16.082Z,100620.48
2018-12-31T07:47:44.477Z,100621.38
2018-12-31T07:50:12.867Z,100627.58
2018-12-31T07:52:41.271Z,100632.80
2018-12-31T07:55:10.576Z,100634.56
2018-12-31T07:57:38.969Z,100636.30
2018-12-31T08:00:08.394Z,100632.34
2018-12-31T08:02:36.799Z,100640.26
2018-12-31T08:05:05.256Z,100638.07
2018-12-31T08:07:33.636Z,100633.22
2018-12-31T08:10:02.021Z,100630.58
2018-12-31T08:12:30.418Z,100635.44
2018-12-31T08:14:58.803Z,100638.01
2018-12-31T08:17:27.198Z,100646.86
2018-12-31T08:19:55.656Z,100638.52
2018-12-31T08:22:24.046Z,100639.81
2018-12-31T08:24:52.424Z,100641.97
2018-12-31T08:27:20.821Z,100641.13
2018-12-31T08:29:49.218Z,100649.05
2018-12-31T08:32:17.599Z,100658.27
2018-12-31T08:34:45.988Z,100659.11
2018-12-31T08:37:14.392Z,100655.22
2018-12-31T08:39:42.782Z,100659.59
2018-12-31T08:42:11.176Z,100663.94
2018-12-31T08:44:40.852Z,100664.81
2018-12-31T08:47:09.345Z,100659.11
2018-12-31T08:49:37.734Z,100664.39
2018-12-31T08:52:06.133Z,100657.34
2018-12-31T08:54:34.516Z,100669.22
2018-12-31T08:57:02.908Z,100661.30
2018-12-31T08:59:31.297Z,100662.68
2018-12-31T09:02:01.510Z,100667.03
2018-12-31T09:04:29.961Z,100665.70
2018-12-31T09:06:58.344Z,100665.31
2018-12-31T09:09:26.738Z,100661.30
2018-12-31T09:11:55.109Z,100660.85
2018-12-31T09:14:23.509Z,100659.11
2018-12-31T09:16:51.880Z,100665.26
2018-12-31T09:19:20.272Z,100664.33
2018-12-31T09:21:48.723Z,100663.01
2018-12-31T09:24:17.117Z,100663.87
2018-12-31T09:26:45.508Z,100669.16
2018-12-31T09:29:13.907Z,100668.28
2018-12-31T09:31:42.282Z,100671.41
2018-12-31T09:34:11.355Z,100672.72
2018-12-31T09:36:39.742Z,100670.53
2018-12-31T09:39:08.149Z,100671.41
2018-12-31T09:41:36.529Z,100670.08
2018-12-31T09:44:04.924Z,100663.94
2018-12-31T09:46:33.316Z,100664.39
2018-12-31T09:49:01.719Z,100664.39
2018-12-31T09:51:30.103Z,100666.97
2018-12-31T09:53:58.503Z,100663.87
2018-12-31T09:56:26.885Z,100665.20
2018-12-31T09:58:55.287Z,100666.12
2018-12-31T10:01:23.682Z,100667.83
2018-12-31T10:03:52.079Z,100668.28
2018-12-31T10:06:20.471Z,100667.83
2018-12-31T10:08:49.337Z,100660.37
2018-12-31T10:11:17.943Z,100662.17
2018-12-31T10:13:46.343Z,100667.45
2018-12-31T10:16:14.728Z,100667.45
2018-12-31T10:18:43.126Z,100672.72
2018-12-31T10:21:11.674Z,100669.60
2018-12-31T10:23:40.069Z,100676.62
2018-12-31T10:26:08.460Z,100670.92
2018-12-31T10:28:37.675Z,100670.89
2018-12-31T10:31:06.062Z,100668.64
2018-12-31T10:33:34.457Z,100664.75
2018-12-31T10:36:02.834Z,100668.26
2018-12-31T10:38:31.227Z,100670.47
2018-12-31T10:40:59.626Z,100662.56
2018-12-31T10:43:28.014Z,100667.39
2018-12-31T10:45:56.411Z,100668.70
2018-12-31T10:48:24.785Z,100666.94
2018-12-31T10:50:53.197Z,100664.30
2018-12-31T10:53:21.589Z,100670.89
2018-12-31T10:55:49.978Z,100665.62
2018-12-31T10:58:18.355Z,100666.01
2018-12-31T11:00:46.750Z,100658.16
2018-12-31T11:03:15.124Z,100651.95
2018-12-31T11:05:43.531Z,100655.06
2018-12-31T11:08:12.038Z,100657.22
2018-12-31T11:10:40.506Z,100651.50
2018-12-31T11:13:08.824Z,100656.33
2018-12-31T11:15:37.210Z,100652.81
2018-12-31T11:18:05.585Z,100651.05
2018-12-31T11:20:33.986Z,100653.20
2018-12-31T11:23:02.374Z,100647.54
2018-12-31T11:25:30.772Z,100646.22
2018-12-31T11:27:59.152Z,100643.59
2018-12-31T11:30:27.548Z,100642.65
2018-12-31T11:32:55.929Z,100640.88
2018-12-31T11:35:24.337Z,100635.22
2018-12-31T11:37:52.722Z,100636.48
2018-12-31T11:40:21.117Z,100637.86
2018-12-31T11:42:49.504Z,100638.70
2018-12-31T11:45:17.902Z,100640.02
2018-12-31T11:47:46.288Z,100634.73
2018-12-31T11:50:14.683Z,100630.78
2018-12-31T11:52:43.080Z,100629.88
2018-12-31T11:55:12.391Z,100620.23
2018-12-31T11:57:40.851Z,100620.23
2018-12-31T12:00:10.213Z,100624.19
2018-12-31T12:02:38.605Z,100615.82
2018-12-31T12:05:07.005Z,100621.55
2018-12-31T12:07:35.391Z,100615.82
2018-12-31T12:10:03.953Z,100607.03
2018-12-31T12:12:32.357Z,100603.95
2018-12-31T12:15:00.745Z,100604.81
2018-12-31T12:17:29.138Z,100604.81
2018-12-31T12:19:57.581Z,100597.36
2018-12-31T12:22:25.977Z,100604.34
2018-12-31T12:24:54.359Z,100606.98
2018-12-31T12:27:22.758Z,100597.36
2018-12-31T12:29:51.147Z,100604.34
2018-12-31T12:32:19.546Z,100602.19
2018-12-31T12:34:47.927Z,100599.55
2018-12-31T12:37:16.325Z,100601.31
2018-12-31T12:39:44.702Z,100601.70
2018-12-31T12:42:13.097Z,100603.89
2018-12-31T12:44:41.734Z,100608.30
2018-12-31T12:47:10.124Z,100606.47
2018-12-31T12:49:38.511Z,100599.93
2018-12-31T12:52:06.906Z,100601.25
2018-12-31T12:54:35.291Z,100597.74
2018-12-31T12:57:03.700Z,100592.02
2018-12-31T12:59:32.087Z,100601.67
2018-12-31T13:02:00.825Z,100605.63
2018-12-31T13:04:29.222Z,100605.63
2018-12-31T13:06:57.613Z,100606.52
2018-12-31T13:09:26.017Z,100612.67
2018-12-31T13:11:54.482Z,100606.98
2018-12-31T13:14:23.617Z,100618.39
2018-12-31T13:16:52.207Z,100615.31
2018-12-31T13:19:20.751Z,100621.03
2018-12-31T13:21:49.152Z,100623.67
2018-12-31T13:24:18.906Z,100614.05
2018-12-31T13:26:47.714Z,100612.73
2018-12-31T13:29:16.108Z,100614.05
2018-12-31T13:31:44.491Z,100615.76
2018-12-31T13:34:13.175Z,100623.67
2018-12-31T13:36:41.561Z,100621.03
2018-12-31T13:39:09.961Z,100620.65
2018-12-31T13:41:38.425Z,100614.50
2018-12-31T13:44:06.821Z,100611.00
2018-12-31T13:46:35.327Z,100615.38
2018-12-31T13:49:03.791Z,100607.45
2018-12-31T13:51:32.181Z,100613.19
2018-12-31T13:54:00.842Z,100611.41
2018-12-31T13:56:29.223Z,100612.25
2018-12-31T13:58:57.625Z,100614.89
2018-12-31T14:01:26.023Z,100614.05
2018-12-31T14:03:54.420Z,100607.91
2018-12-31T14:06:22.828Z,100611.86
2018-12-31T14:08:51.208Z,100612.25
2018-12-31T14:11:19.597Z,100613.57
2018-12-31T14:13:47.995Z,100622.36
2018-12-31T14:16:16.382Z,100615.76
2018-12-31T14:18:44.780Z,100615.31
2018-12-31T14:21:13.531Z,100616.63
2018-12-31T14:23:42.046Z,100621.03
2018-12-31T14:26:10.431Z,100623.22
2018-12-31T14:28:38.885Z,100628.08
2018-12-31T14:31:07.540Z,100624.61
2018-12-31T14:33:35.944Z,100628.56
2018-12-31T14:36:04.317Z,100623.67
2018-12-31T14:38:32.708Z,100633.84
2018-12-31T14:41:01.104Z,100634.23
2018-12-31T14:43:29.778Z,100633.36
2018-12-31T14:45:58.168Z,100639.05
2018-12-31T14:48:26.554Z,100635.61
2018-12-31T14:50:55.026Z,100642.14
2018-12-31T14:53:23.421Z,100637.80
2018-12-31T14:55:51.824Z,100635.16
2018-12-31T14:58:20.214Z,100643.91
2018-12-31T15:00:48.604Z,100638.63
2018-12-31T15:03:16.990Z,100640.82
2018-12-31T15:05:45.453Z,100643.08
2018-12-31T15:08:14.104Z,100639.18
2018-12-31T15:10:42.498Z,100642.65
2018-12-31T15:13:10.899Z,100641.33
2018-12-31T15:15:39.304Z,100638.70
2018-12-31T15:18:07.696Z,100642.27
2018-12-31T15:20:36.098Z,100640.02
2018-12-31T15:23:04.709Z,100640.08
2018-12-31T15:25:33.100Z,100637.92
2018-12-31T15:28:01.488Z,100646.22
2018-12-31T15:30:29.887Z,100644.52
2018-12-31T15:32:58.474Z,100642.77
2018-12-31T15:35:27.186Z,100637.50
2018-12-31T15:37:55.590Z,100642.33
2018-12-31T15:40:24.281Z,100650.24
2018-12-31T15:42:52.667Z,100649.81
2018-12-31T15:45:21.071Z,100649.38
2018-12-31T15:47:49.731Z,100650.30
2018-12-31T15:50:18.199Z,100643.22
2018-12-31T15:52:46.592Z,100653.33
2018-12-31T15:55:15.113Z,100654.25
2018-12-31T15:57:44.383Z,100656.89
2018-12-31T16:00:13.035Z,100659.59
2018-12-31T16:02:41.482Z,100662.17
2018-12-31T16:05:09.883Z,100662.56
2018-12-31T16:07:45.331Z,100660.79
2018-12-31T16:10:08.541Z,100660.79
2018-12-31T16:12:36.923Z,100658.16
2018-12-31T16:15:06.669Z,100660.85
2018-12-31T16:17:35.057Z,100661.23
2018-12-31T16:20:04.107Z,100666.12
2018-12-31T16:22:32.512Z,100659.53
2018-12-31T16:25:00.896Z,100664.33
2018-12-31T16:27:29.311Z,100670.92
2018-12-31T16:29:57.688Z,100668.77
2018-12-31T16:32:26.101Z,100673.17
2018-12-31T16:34:54.772Z,100673.17
2018-12-31T16:37:23.253Z,100670.02
2018-12-31T16:39:52.061Z,100670.02
2018-12-31T16:42:20.478Z,100668.64
2018-12-31T16:44:48.870Z,100672.21
2018-12-31T16:47:17.277Z,100670.89
2018-12-31T16:49:45.676Z,100673.47
2018-12-31T16:52:14.767Z,100674.31
2018-12-31T16:54:43.162Z,100665.50
2018-12-31T16:57:11.620Z,100664.12
2018-12-31T16:59:39.947Z,100662.34
2018-12-31T17:02:08.349Z,100665.31
2018-12-31T17:04:36.732Z,100666.18
2018-12-31T17:07:05.209Z,100662.16
2018-12-31T17:09:33.601Z,100664.80
2018-12-31T17:12:01.999Z,100665.67
2018-12-31T17:14:30.401Z,100656.88
2018-12-31T17:16:58.808Z,100663.03
2018-12-31T17:19:27.481Z,100662.55
2018-12-31T17:21:55.876Z,100664.74
2018-12-31T17:24:24.334Z,100659.11
2018-12-31T17:26:52.742Z,100656.95
2018-12-31T17:29:21.138Z,100654.76
2018-12-31T17:31:49.551Z,100657.78
2018-12-31T17:34:17.948Z,100658.27
2018-12-31T17:36:46.348Z,100663.48
2018-12-31T17:39:15.147Z,100654.58
2018-12-31T17:41:43.551Z,100658.83
2018-12-31T17:44:12.100Z,100657.32
2018-12-31T17:46:40.541Z,100658.52
2018-12-31T17:49:08.939Z,100658.27
2018-12-31T17:51:37.331Z,100657.11
2018-12-31T17:54:05.743Z,100649.75
2018-12-31T17:56:34.132Z,100651.16
2018-12-31T17:59:02.811Z,100648.09
2018-12-31T18:01:31.196Z,100646.87
2018-12-31T18:03:59.586Z,100652.55
2018-12-31T18:06:28.067Z,100646.83
2018-12-31T18:08:56.476Z,100642.50
2018-12-31T18:11:24.872Z,100649.53
2018-12-31T18:13:53.268Z,100649.45
2018-12-31T18:16:21.666Z,100651.65
2018-12-31T18:18:50.078Z,100654.22
2018-12-31T18:21:18.536Z,100652.36
2018-12-31T18:23:46.947Z,100648.90
2018-12-31T18:26:15.547Z,100647.11
2018-12-31T18:28:43.954Z,100652.09
2018-12-31T18:31:12.348Z,100647.30
2018-12-31T18:33:40.761Z,100652.72
2018-12-31T18:36:09.158Z,100661.56
2018-12-31T18:38:37.747Z,100658.02
2018-12-31T18:41:06.132Z,100666.78
2018-12-31T18:43:34.529Z,100662.70
2018-12-31T18:46:02.961Z,100659.59
2018-12-31T18:48:31.373Z,100658.77
2018-12-31T18:51:00.125Z,100651.72
2018-12-31T18:53:28.527Z,100654.72
2018-12-31T18:55:56.909Z,100655.98
2018-12-31T18:58:25.319Z,100657.61
2018-12-31T19:00:53.716Z,100650.37
2018-12-31T19:03:22.111Z,100654.76
2018-12-31T19:05:50.491Z,100657.78
2018-12-31T19:08:18.894Z,100648.91
2018-12-31T19:10:47.291Z,100648.06
2018-12-31T19:13:15.902Z,100649.20
2018-12-31T19:15:44.349Z,100651.77
2018-12-31T19:18:13.035Z,100656.97
2018-12-31T19:20:41.417Z,100655.91
2018-12-31T19:23:09.822Z,100660.56
2018-12-31T19:25:38.224Z,100657.36
2018-12-31T19:28:06.632Z,100659.02
2018-12-31T19:30:35.030Z,100656.73
2018-12-31T19:33:03.417Z,100658.39
2018-12-31T19:35:31.906Z,100653.50
2018-12-31T19:38:00.302Z,100651.84
2018-12-31T19:40:28.708Z,100648.83
2018-12-31T19:42:57.103Z,100648.77
2018-12-31T19:45:25.515Z,100642.66
2018-12-31T19:47:55.702Z,100647.08
2018-12-31T19:50:24.190Z,100639.70
2018-12-31T19:52:52.597Z,100642.85
2018-12-31T19:55:21.008Z,100643.90
2018-12-31T19:57:49.572Z,100642.78
2018-12-31T20:00:18.051Z,100637.64
2018-12-31T20:02:46.452Z,100635.66
2018-12-31T20:05:14.957Z,100635.97
2018-12-31T20:07:43.332Z,100632.56
2018-12-31T20:10:11.739Z,100635.03
2018-12-31T20:12:40.120Z,100634.75
2018-12-31T20:15:08.520Z,100633.16
2018-12-31T20:17:36.926Z,100629.84
2018-12-31T20:20:05.699Z,100625.66
2018-12-31T20:22:34.091Z,100626.73
2018-12-31T20:25:02.997Z,100631.40
2018-12-31T20:27:31.399Z,100627.12
2018-12-31T20:29:59.802Z,100625.42
2018-12-31T20:32:28.199Z,100625.62
2018-12-31T20:34:56.595Z,100625.62
2018-12-31T20:37:24.995Z,100616.20
2018-12-31T20:39:53.397Z,100615.15
2018-12-31T20:42:21.783Z,100618.21
2018-12-31T20:44:50.182Z,100620.77
2018-12-31T20:47:18.583Z,100619.34
2018-12-31T20:49:47.027Z,100614.48
2018-12-31T20:52:15.505Z,100609.06
2018-12-31T20:54:43.889Z,100601.08
2018-12-31T20:57:12.323Z,100602.04
2018-12-31T20:59:40.714Z,100600.81
2018-12-31T21:02:09.132Z,100596.31
2018-12-31T21:04:37.531Z,100589.77
2018-12-31T21:07:06.219Z,100590.27
2018-12-31T21:09:34.862Z,100591.19
2018-12-31T21:12:03.267Z,100585.87
2018-12-31T21:14:31.663Z,100580.55
2018-12-31T21:17:00.073Z,100582.94
2018-12-31T21:19:28.461Z,100586.06
2018-12-31T21:21:56.920Z,100583.50
2018-12-31T21:24:25.270Z,100587.95
2018-12-31T21:26:53.661Z,100580.17
2018-12-31T21:29:22.058Z,100588.63
2018-12-31T21:31:50.464Z,100583.03
2018-12-31T21:34:19.038Z,100585.41
2018-12-31T21:36:47.439Z,100582.64
2018-12-31T21:39:15.837Z,100582.27
2018-12-31T21:41:44.230Z,100587.95
2018-12-31T21:44:12.628Z,100579.70
2018-12-31T21:46:41.039Z,100579.39
2018-12-31T21:49:09.433Z,100586.21
2018-12-31T21:51:37.853Z,100582.78
2018-12-31T21:54:06.258Z,100582.87
2018-12-31T21:56:34.652Z,100582.51
2018-12-31T21:59:03.048Z,100586.97
2018-12-31T22:01:31.643Z,100580.88
2018-12-31T22:04:00.041Z,100582.77
2018-12-31T22:06:28.439Z,100582.03
2018-12-31T22:08:56.834Z,100579.94
2018-12-31T22:11:25.223Z,100577.27
2018-12-31T22:13:53.624Z,100572.70
2018-12-31T22:16:22.025Z,100575.37
2018-12-31T22:18:50.437Z,100570.81
2018-12-31T22:21:20.193Z,100570.24
2018-12-31T22:23:48.507Z,100573.66
2018-12-31T22:26:17.399Z,100576.76
2018-12-31T22:28:45.809Z,100577.22
2018-12-31T22:31:14.208Z,100569.45
2018-12-31T22:33:42.601Z,100571.45
2018-12-31T22:36:11.002Z,100570.80
2018-12-31T22:38:39.400Z,100565.84
2018-12-31T22:41:08.164Z,100568.31
2018-12-31T22:43:36.571Z,100569.48
2018-12-31T22:46:04.970Z,100574.98
2018-12-31T22:48:33.384Z,100572.53
2018-12-31T22:51:01.789Z,100580.22
2018-12-31T22:53:30.198Z,100567.68
2018-12-31T22:55:58.594Z,100569.62
2018-12-31T22:58:27.004Z,100565.33
2018-12-31T23:00:55.543Z,100561.73
2018-12-31T23:03:23.946Z,100562.31
2018-12-31T23:05:52.343Z,100559.45
2018-12-31T23:08:20.756Z,100560.98
2018-12-31T23:10:49.149Z,100550.13
2018-12-31T23:13:17.746Z,100542.91
2018-12-31T23:15:47.398Z,100542.71
2018-12-31T23:18:15.882Z,100542.51
2018-12-31T23:20:44.627Z,100545.84
2018-12-31T23:23:13.029Z,100543.38
2018-12-31T23:25:41.410Z,100547.16
2018-12-31T23:28:09.816Z,100538.50
2018-12-31T23:30:38.206Z,100534.41
2018-12-31T23:33:06.611Z,100532.97
2018-12-31T23:35:35.011Z,100530.51
2018-12-31T23:38:03.401Z,100532.86
2018-12-31T23:40:31.791Z,100531.33
2018-12-31T23:43:06.320Z,100527.63
2018-12-31T23:45:30.329Z,100533.68
2018-12-31T23:47:58.720Z,100531.98
2018-12-31T23:50:27.124Z,100538.17
2018-12-31T23:52:55.520Z,100526.30
2018-12-31T23:55:23.932Z,100533.68
2018-12-31T23:57:52.321Z,100533.31
